Detroit Metropolitan Wayne County Airport
KDTW : now visible

Airfield :











YOU CAN JOIN US ON...

 
LOGIN :

Register | Disclaimer

   EN    FR    IT 

 









Legend :    VFR   Marginal VFR   IFR   Intensive IFR   Very Intensive IFR
Visi :
Ceiling :
>= 8 km
>= 3000ft
5 to 8 km
1000 to 3000 ft
1500m to 5 km
500 to 1000 ft
800 to 1500m
200 to 500 ft
< 800m
< 200 ft
Symbols :   Thunderstorms  Fog  Heavy snow  Heavy precipitations  Wind > 20 kt






- Airport Elevation : 645 ft
- IATA code : DTW


KDTW - Detroit Metropolitan Wayne County

CURRENT METAR :
  • 230514Z 00000KT 3/4SM R03R/P6000FT BR BKN002 BKN150 11/11 A2997 RMK AO2 TWR VIS 4 T01110106

EXPIRED METARs :
  • 230453Z 00000KT 1SM R03R/3500V6000FT BR BKN002 BKN150 12/11 A2998 RMK AO2 TWR VIS 4 SLP152 T01170111 401560083
  • 230434Z 00000KT 1 1/4SM R03R/5000VP6000FT BR SCT002 BKN150 11/11 A2998 RMK AO2 TWR VIS 4 T01110106
  • 230412Z 00000KT 1 1/4SM BR BKN002 BKN150 12/11 A2998 RMK AO2 TWR VIS 2 T01170111
  • 230353Z 13003KT 2SM R03R/2800VP6000FT BR SCT003 BKN200 12/12 A2998 RMK AO2 SLP154 T01220117
  • 230253Z 00000KT 2SM R03R/2000V5500FT BR SCT003 BKN200 11/11 A3001 RMK AO2 SLP165 T01110111 58017

TAF KDTW
Valid from the 23 at 06:00 until the 24 at 12:00 UTC


230526Z 2306/2412 17006KT 3SM BR SCT003 WS010/23040KT
TEMPO 2306/2307 1SM BR
FM230800 20008KT 6SM BR SCT250 WS010/23040KT
FM231000 21012KT P6SM SCT045
FM231600 22016G30KT P6SM BKN040
TEMPO 2320/2322 2SM TSRA BR BKN028 OVC040CB
FM232200 29015G25KT 5SM -SHRA BKN018 OVC025
FM240000 30014G22KT P6SM SCT018 OVC025
FM240400 32010KT P6SM BKN025
KZOB FIR / North America



MET'MAP, your aeronautical weather chart ! - Copyright ORBIFLY December 2007 - Disclaimer

ORBIFLY MET'MAP TEAM :

Programming & Development : Alexandra Zaïnal
Concept & original design : Baudouin d'Aumeries
Assistance for programming : Marc-Olivier Méhu
Technical & hardware support : Manuel Goepfert

Contact : metmap@orbifly.com




SOURCES & CREDITS :

   NOAA       Earth
Advisory